sensor_id;sensor_type;location;lat;lon;timestamp;P1;durP1;ratioP1;P2;durP2;ratioP2
8584;SDS011;7180;52.742;11.420;2022-10-16T00:00:00;7.57;;;7.17;;
8584;SDS011;7180;52.742;11.420;2022-10-16T00:02:25;7.80;;;7.50;;
8584;SDS011;7180;52.742;11.420;2022-10-16T00:04:50;7.90;;;7.40;;
8584;SDS011;7180;52.742;11.420;2022-10-16T00:07:16;8.40;;;7.93;;
8584;SDS011;7180;52.742;11.420;2022-10-16T00:09:41;7.90;;;7.50;;
8584;SDS011;7180;52.742;11.420;2022-10-16T00:12:06;8.27;;;7.77;;
8584;SDS011;7180;52.742;11.420;2022-10-16T00:14:32;7.90;;;7.50;;
8584;SDS011;7180;52.742;11.420;2022-10-16T00:16:57;7.77;;;7.37;;
8584;SDS011;7180;52.742;11.420;2022-10-16T00:19:22;7.70;;;7.30;;
8584;SDS011;7180;52.742;11.420;2022-10-16T00:21:48;7.20;;;6.90;;
8584;SDS011;7180;52.742;11.420;2022-10-16T00:24:13;7.40;;;7.10;;
8584;SDS011;7180;52.742;11.420;2022-10-16T00:26:38;7.70;;;7.27;;
8584;SDS011;7180;52.742;11.420;2022-10-16T00:29:04;7.87;;;7.47;;
8584;SDS011;7180;52.742;11.420;2022-10-16T00:31:29;7.60;;;7.10;;
8584;SDS011;7180;52.742;11.420;2022-10-16T00:33:54;8.00;;;7.60;;
8584;SDS011;7180;52.742;11.420;2022-10-16T00:36:21;7.13;;;6.83;;
8584;SDS011;7180;52.742;11.420;2022-10-16T00:38:46;7.40;;;7.00;;
8584;SDS011;7180;52.742;11.420;2022-10-16T00:41:13;8.30;;;7.70;;
8584;SDS011;7180;52.742;11.420;2022-10-16T00:43:41;8.00;;;7.67;;
8584;SDS011;7180;52.742;11.420;2022-10-16T00:48:41;8.80;;;8.17;;
8584;SDS011;7180;52.742;11.420;2022-10-16T00:51:07;7.80;;;7.40;;
8584;SDS011;7180;52.742;11.420;2022-10-16T00:53:33;8.30;;;7.90;;
8584;SDS011;7180;52.742;11.420;2022-10-16T00:55:59;8.40;;;7.90;;
8584;SDS011;7180;52.742;11.420;2022-10-16T00:58:24;8.20;;;7.80;;
8584;SDS011;7180;52.742;11.420;2022-10-16T01:00:49;8.80;;;8.30;;
8584;SDS011;7180;52.742;11.420;2022-10-16T01:03:23;8.40;;;8.00;;
8584;SDS011;7180;52.742;11.420;2022-10-16T01:05:54;8.67;;;8.20;;
8584;SDS011;7180;52.742;11.420;2022-10-16T01:08:26;8.37;;;7.90;;
8584;SDS011;7180;52.742;11.420;2022-10-16T01:10:57;8.90;;;8.40;;
8584;SDS011;7180;52.742;11.420;2022-10-16T01:13:26;8.77;;;8.37;;
8584;SDS011;7180;52.742;11.420;2022-10-16T01:18:23;8.30;;;7.90;;
8584;SDS011;7180;52.742;11.420;2022-10-16T01:20:54;8.57;;;8.17;;
8584;SDS011;7180;52.742;11.420;2022-10-16T01:28:32;8.87;;;8.30;;
8584;SDS011;7180;52.742;11.420;2022-10-16T01:30:59;8.63;;;8.17;;
8584;SDS011;7180;52.742;11.420;2022-10-16T01:33:30;8.50;;;8.10;;
8584;SDS011;7180;52.742;11.420;2022-10-16T01:35:58;8.63;;;8.17;;
8584;SDS011;7180;52.742;11.420;2022-10-16T01:40:50;8.57;;;8.17;;
8584;SDS011;7180;52.742;11.420;2022-10-16T01:43:18;8.90;;;8.50;;
8584;SDS011;7180;52.742;11.420;2022-10-16T01:45:45;8.90;;;8.50;;
8584;SDS011;7180;52.742;11.420;2022-10-16T01:48:14;8.97;;;8.47;;
8584;SDS011;7180;52.742;11.420;2022-10-16T01:50:41;8.97;;;8.47;;
8584;SDS011;7180;52.742;11.420;2022-10-16T01:53:08;8.80;;;8.20;;
8584;SDS011;7180;52.742;11.420;2022-10-16T01:55:36;9.10;;;8.60;;
8584;SDS011;7180;52.742;11.420;2022-10-16T01:58:02;8.27;;;7.87;;
8584;SDS011;7180;52.742;11.420;2022-10-16T02:00:29;8.77;;;8.17;;
8584;SDS011;7180;52.742;11.420;2022-10-16T02:02:54;9.57;;;9.07;;
8584;SDS011;7180;52.742;11.420;2022-10-16T02:08:04;9.10;;;8.60;;
8584;SDS011;7180;52.742;11.420;2022-10-16T02:10:29;8.87;;;8.47;;
8584;SDS011;7180;52.742;11.420;2022-10-16T02:15:39;8.27;;;7.87;;
8584;SDS011;7180;52.742;11.420;2022-10-16T02:18:05;8.70;;;8.30;;
8584;SDS011;7180;52.742;11.420;2022-10-16T02:21:15;8.73;;;8.30;;
8584;SDS011;7180;52.742;11.420;2022-10-16T02:25:54;9.13;;;8.63;;
8584;SDS011;7180;52.742;11.420;2022-10-16T02:28:25;9.40;;;8.90;;
8584;SDS011;7180;52.742;11.420;2022-10-16T02:30:56;9.40;;;8.90;;
8584;SDS011;7180;52.742;11.420;2022-10-16T02:33:23;9.43;;;9.03;;
8584;SDS011;7180;52.742;11.420;2022-10-16T02:35:49;9.83;;;9.23;;
8584;SDS011;7180;52.742;11.420;2022-10-16T02:38:15;9.30;;;8.80;;
8584;SDS011;7180;52.742;11.420;2022-10-16T02:40:41;8.83;;;8.43;;
8584;SDS011;7180;52.742;11.420;2022-10-16T02:43:07;9.17;;;8.67;;
8584;SDS011;7180;52.742;11.420;2022-10-16T02:45:33;9.43;;;8.97;;
8584;SDS011;7180;52.742;11.420;2022-10-16T02:47:58;8.90;;;8.40;;
8584;SDS011;7180;52.742;11.420;2022-10-16T02:50:23;8.63;;;8.23;;
8584;SDS011;7180;52.742;11.420;2022-10-16T02:52:50;9.07;;;8.50;;
8584;SDS011;7180;52.742;11.420;2022-10-16T02:55:15;8.80;;;8.40;;
8584;SDS011;7180;52.742;11.420;2022-10-16T02:57:40;8.83;;;8.37;;
8584;SDS011;7180;52.742;11.420;2022-10-16T03:00:06;8.97;;;8.57;;
8584;SDS011;7180;52.742;11.420;2022-10-16T03:02:31;8.87;;;8.47;;
8584;SDS011;7180;52.742;11.420;2022-10-16T03:04:57;9.10;;;8.60;;
8584;SDS011;7180;52.742;11.420;2022-10-16T03:07:22;8.60;;;8.13;;
8584;SDS011;7180;52.742;11.420;2022-10-16T03:09:47;9.00;;;8.50;;
8584;SDS011;7180;52.742;11.420;2022-10-16T03:12:12;9.10;;;8.60;;
8584;SDS011;7180;52.742;11.420;2022-10-16T03:14:37;8.87;;;8.47;;
8584;SDS011;7180;52.742;11.420;2022-10-16T03:17:04;9.33;;;8.73;;
8584;SDS011;7180;52.742;11.420;2022-10-16T03:19:30;9.30;;;8.80;;
8584;SDS011;7180;52.742;11.420;2022-10-16T03:21:55;9.00;;;8.50;;
8584;SDS011;7180;52.742;11.420;2022-10-16T03:24:20;8.97;;;8.57;;
8584;SDS011;7180;52.742;11.420;2022-10-16T03:26:45;9.60;;;9.00;;
8584;SDS011;7180;52.742;11.420;2022-10-16T03:29:10;10.03;;;9.43;;
8584;SDS011;7180;52.742;11.420;2022-10-16T03:31:36;10.30;;;9.60;;
8584;SDS011;7180;52.742;11.420;2022-10-16T03:34:01;9.90;;;9.40;;
8584;SDS011;7180;52.742;11.420;2022-10-16T03:36:26;9.50;;;9.00;;
8584;SDS011;7180;52.742;11.420;2022-10-16T03:38:51;10.10;;;9.50;;
8584;SDS011;7180;52.742;11.420;2022-10-16T03:41:16;10.00;;;9.50;;
8584;SDS011;7180;52.742;11.420;2022-10-16T03:43:42;10.20;;;9.60;;
8584;SDS011;7180;52.742;11.420;2022-10-16T03:46:07;10.20;;;9.60;;
8584;SDS011;7180;52.742;11.420;2022-10-16T03:48:32;10.30;;;9.70;;
8584;SDS011;7180;52.742;11.420;2022-10-16T03:50:58;10.20;;;9.60;;
8584;SDS011;7180;52.742;11.420;2022-10-16T03:53:23;9.63;;;9.03;;
8584;SDS011;7180;52.742;11.420;2022-10-16T03:55:48;10.40;;;9.80;;
8584;SDS011;7180;52.742;11.420;2022-10-16T03:58:14;9.70;;;9.20;;
8584;SDS011;7180;52.742;11.420;2022-10-16T04:00:42;10.10;;;9.60;;
8584;SDS011;7180;52.742;11.420;2022-10-16T04:03:08;10.37;;;9.77;;
8584;SDS011;7180;52.742;11.420;2022-10-16T04:05:33;10.63;;;10.13;;
8584;SDS011;7180;52.742;11.420;2022-10-16T04:07:58;10.23;;;9.63;;
8584;SDS011;7180;52.742;11.420;2022-10-16T04:10:23;10.60;;;10.00;;
8584;SDS011;7180;52.742;11.420;2022-10-16T04:12:48;10.60;;;9.90;;
8584;SDS011;7180;52.742;11.420;2022-10-16T04:15:14;10.77;;;10.17;;
8584;SDS011;7180;52.742;11.420;2022-10-16T04:17:39;10.93;;;10.33;;
8584;SDS011;7180;52.742;11.420;2022-10-16T04:20:04;11.00;;;10.30;;
8584;SDS011;7180;52.742;11.420;2022-10-16T04:22:30;10.50;;;9.90;;
8584;SDS011;7180;52.742;11.420;2022-10-16T04:24:55;11.17;;;10.57;;
8584;SDS011;7180;52.742;11.420;2022-10-16T04:27:20;11.10;;;10.50;;
8584;SDS011;7180;52.742;11.420;2022-10-16T04:29:45;10.23;;;9.63;;
8584;SDS011;7180;52.742;11.420;2022-10-16T04:32:10;10.50;;;9.80;;
8584;SDS011;7180;52.742;11.420;2022-10-16T04:34:36;11.10;;;10.50;;
8584;SDS011;7180;52.742;11.420;2022-10-16T04:37:01;10.70;;;10.10;;
8584;SDS011;7180;52.742;11.420;2022-10-16T04:39:26;11.50;;;10.90;;
8584;SDS011;7180;52.742;11.420;2022-10-16T04:41:51;11.23;;;10.63;;
8584;SDS011;7180;52.742;11.420;2022-10-16T04:44:17;11.00;;;10.50;;
8584;SDS011;7180;52.742;11.420;2022-10-16T04:46:42;10.20;;;9.67;;
8584;SDS011;7180;52.742;11.420;2022-10-16T04:49:07;11.10;;;10.40;;
8584;SDS011;7180;52.742;11.420;2022-10-16T04:51:32;11.00;;;10.40;;
8584;SDS011;7180;52.742;11.420;2022-10-16T04:53:57;10.50;;;9.90;;
8584;SDS011;7180;52.742;11.420;2022-10-16T04:56:23;11.27;;;10.63;;
8584;SDS011;7180;52.742;11.420;2022-10-16T04:58:49;11.07;;;10.47;;
8584;SDS011;7180;52.742;11.420;2022-10-16T05:01:14;11.10;;;10.40;;
8584;SDS011;7180;52.742;11.420;2022-10-16T05:03:39;11.07;;;10.37;;
8584;SDS011;7180;52.742;11.420;2022-10-16T05:06:05;11.27;;;10.63;;
8584;SDS011;7180;52.742;11.420;2022-10-16T05:08:31;10.70;;;10.10;;
8584;SDS011;7180;52.742;11.420;2022-10-16T05:10:56;10.80;;;10.20;;
8584;SDS011;7180;52.742;11.420;2022-10-16T05:13:21;11.90;;;11.20;;
8584;SDS011;7180;52.742;11.420;2022-10-16T05:15:48;11.50;;;10.80;;
8584;SDS011;7180;52.742;11.420;2022-10-16T05:18:13;11.10;;;10.40;;
8584;SDS011;7180;52.742;11.420;2022-10-16T05:20:38;12.10;;;11.40;;
8584;SDS011;7180;52.742;11.420;2022-10-16T05:23:03;11.30;;;10.60;;
8584;SDS011;7180;52.742;11.420;2022-10-16T05:25:29;11.47;;;10.87;;
8584;SDS011;7180;52.742;11.420;2022-10-16T05:27:54;12.07;;;11.17;;
8584;SDS011;7180;52.742;11.420;2022-10-16T05:30:19;10.47;;;9.93;;
8584;SDS011;7180;52.742;11.420;2022-10-16T05:32:49;11.30;;;10.70;;
8584;SDS011;7180;52.742;11.420;2022-10-16T05:35:15;11.13;;;10.50;;
8584;SDS011;7180;52.742;11.420;2022-10-16T05:37:41;11.70;;;10.90;;
8584;SDS011;7180;52.742;11.420;2022-10-16T05:40:07;11.90;;;11.30;;
8584;SDS011;7180;52.742;11.420;2022-10-16T05:42:32;13.10;;;12.30;;
8584;SDS011;7180;52.742;11.420;2022-10-16T05:44:57;12.20;;;11.50;;
8584;SDS011;7180;52.742;11.420;2022-10-16T05:47:22;12.00;;;11.30;;
8584;SDS011;7180;52.742;11.420;2022-10-16T05:49:47;11.60;;;10.90;;
8584;SDS011;7180;52.742;11.420;2022-10-16T05:52:13;11.73;;;11.03;;
8584;SDS011;7180;52.742;11.420;2022-10-16T05:54:38;11.07;;;10.37;;
8584;SDS011;7180;52.742;11.420;2022-10-16T05:57:03;11.63;;;11.00;;
8584;SDS011;7180;52.742;11.420;2022-10-16T05:59:30;10.73;;;10.10;;
8584;SDS011;7180;52.742;11.420;2022-10-16T06:01:55;12.00;;;11.33;;
8584;SDS011;7180;52.742;11.420;2022-10-16T06:04:20;12.73;;;12.00;;
8584;SDS011;7180;52.742;11.420;2022-10-16T06:06:46;11.43;;;10.73;;
8584;SDS011;7180;52.742;11.420;2022-10-16T06:09:11;12.10;;;11.40;;
8584;SDS011;7180;52.742;11.420;2022-10-16T06:11:36;11.70;;;11.00;;
8584;SDS011;7180;52.742;11.420;2022-10-16T06:14:02;12.30;;;11.50;;
8584;SDS011;7180;52.742;11.420;2022-10-16T06:16:31;11.90;;;11.20;;
8584;SDS011;7180;52.742;11.420;2022-10-16T06:18:56;12.33;;;11.60;;
8584;SDS011;7180;52.742;11.420;2022-10-16T06:21:22;13.23;;;12.33;;
8584;SDS011;7180;52.742;11.420;2022-10-16T06:23:50;13.70;;;12.27;;
8584;SDS011;7180;52.742;11.420;2022-10-16T06:26:17;13.20;;;12.30;;
8584;SDS011;7180;52.742;11.420;2022-10-16T06:28:42;11.50;;;10.80;;
8584;SDS011;7180;52.742;11.420;2022-10-16T06:31:08;11.70;;;10.93;;
8584;SDS011;7180;52.742;11.420;2022-10-16T06:33:33;11.73;;;11.03;;
8584;SDS011;7180;52.742;11.420;2022-10-16T06:36:06;11.47;;;10.77;;
8584;SDS011;7180;52.742;11.420;2022-10-16T06:38:33;11.80;;;11.10;;
8584;SDS011;7180;52.742;11.420;2022-10-16T06:40:58;11.00;;;10.30;;
8584;SDS011;7180;52.742;11.420;2022-10-16T06:43:23;10.93;;;10.30;;
8584;SDS011;7180;52.742;11.420;2022-10-16T06:45:55;11.83;;;11.13;;
8584;SDS011;7180;52.742;11.420;2022-10-16T06:48:21;12.23;;;11.37;;
8584;SDS011;7180;52.742;11.420;2022-10-16T06:53:45;12.27;;;11.47;;
8584;SDS011;7180;52.742;11.420;2022-10-16T06:56:12;12.83;;;11.97;;
8584;SDS011;7180;52.742;11.420;2022-10-16T06:58:38;12.77;;;12.00;;
8584;SDS011;7180;52.742;11.420;2022-10-16T07:01:03;12.20;;;11.50;;
8584;SDS011;7180;52.742;11.420;2022-10-16T07:03:29;11.90;;;11.30;;
8584;SDS011;7180;52.742;11.420;2022-10-16T07:05:54;11.70;;;10.77;;
8584;SDS011;7180;52.742;11.420;2022-10-16T07:08:19;11.70;;;11.00;;
8584;SDS011;7180;52.742;11.420;2022-10-16T07:10:44;11.90;;;11.20;;
8584;SDS011;7180;52.742;11.420;2022-10-16T07:13:10;11.13;;;10.50;;
8584;SDS011;7180;52.742;11.420;2022-10-16T07:15:38;11.30;;;10.67;;
8584;SDS011;7180;52.742;11.420;2022-10-16T07:18:03;11.23;;;10.57;;
8584;SDS011;7180;52.742;11.420;2022-10-16T07:20:28;11.60;;;10.90;;
8584;SDS011;7180;52.742;11.420;2022-10-16T07:22:53;11.60;;;10.90;;
8584;SDS011;7180;52.742;11.420;2022-10-16T07:25:18;11.60;;;10.90;;
8584;SDS011;7180;52.742;11.420;2022-10-16T07:27:44;11.47;;;10.77;;
8584;SDS011;7180;52.742;11.420;2022-10-16T07:30:09;12.30;;;11.40;;
8584;SDS011;7180;52.742;11.420;2022-10-16T07:32:34;12.70;;;11.90;;
8584;SDS011;7180;52.742;11.420;2022-10-16T07:34:59;12.20;;;11.43;;
8584;SDS011;7180;52.742;11.420;2022-10-16T07:37:25;12.30;;;11.50;;
8584;SDS011;7180;52.742;11.420;2022-10-16T07:39:50;11.10;;;10.50;;
8584;SDS011;7180;52.742;11.420;2022-10-16T07:42:15;11.57;;;10.80;;
8584;SDS011;7180;52.742;11.420;2022-10-16T07:44:40;11.57;;;10.70;;
8584;SDS011;7180;52.742;11.420;2022-10-16T07:47:06;11.53;;;10.77;;
8584;SDS011;7180;52.742;11.420;2022-10-16T07:49:31;11.13;;;10.43;;
8584;SDS011;7180;52.742;11.420;2022-10-16T07:51:56;11.50;;;10.80;;
8584;SDS011;7180;52.742;11.420;2022-10-16T07:54:21;10.40;;;9.80;;
8584;SDS011;7180;52.742;11.420;2022-10-16T07:56:46;10.83;;;10.03;;
8584;SDS011;7180;52.742;11.420;2022-10-16T07:59:12;9.90;;;9.40;;
8584;SDS011;7180;52.742;11.420;2022-10-16T08:01:37;10.57;;;9.87;;
8584;SDS011;7180;52.742;11.420;2022-10-16T08:04:02;10.60;;;10.00;;
8584;SDS011;7180;52.742;11.420;2022-10-16T08:06:27;10.23;;;9.70;;
8584;SDS011;7180;52.742;11.420;2022-10-16T08:08:52;10.40;;;9.80;;
8584;SDS011;7180;52.742;11.420;2022-10-16T08:11:18;10.33;;;9.73;;
8584;SDS011;7180;52.742;11.420;2022-10-16T08:13:43;9.87;;;9.37;;
8584;SDS011;7180;52.742;11.420;2022-10-16T08:16:08;10.20;;;9.70;;
8584;SDS011;7180;52.742;11.420;2022-10-16T08:18:37;10.30;;;9.70;;
8584;SDS011;7180;52.742;11.420;2022-10-16T08:21:03;10.73;;;10.00;;
8584;SDS011;7180;52.742;11.420;2022-10-16T08:23:29;10.60;;;10.00;;
8584;SDS011;7180;52.742;11.420;2022-10-16T08:25:55;10.43;;;9.80;;
8584;SDS011;7180;52.742;11.420;2022-10-16T08:28:21;10.43;;;9.83;;
8584;SDS011;7180;52.742;11.420;2022-10-16T08:30:46;10.57;;;10.03;;
8584;SDS011;7180;52.742;11.420;2022-10-16T08:33:11;11.13;;;10.43;;
8584;SDS011;7180;52.742;11.420;2022-10-16T08:35:36;10.90;;;10.27;;
8584;SDS011;7180;52.742;11.420;2022-10-16T08:38:05;10.63;;;10.03;;
8584;SDS011;7180;52.742;11.420;2022-10-16T08:40:31;10.57;;;9.97;;
8584;SDS011;7180;52.742;11.420;2022-10-16T08:51:07;9.93;;;9.30;;
8584;SDS011;7180;52.742;11.420;2022-10-16T08:53:36;9.10;;;8.70;;
8584;SDS011;7180;52.742;11.420;2022-10-16T08:56:04;9.87;;;9.20;;
8584;SDS011;7180;52.742;11.420;2022-10-16T08:58:30;9.10;;;8.50;;
8584;SDS011;7180;52.742;11.420;2022-10-16T09:00:57;9.03;;;8.53;;
8584;SDS011;7180;52.742;11.420;2022-10-16T09:08:38;9.03;;;8.50;;
8584;SDS011;7180;52.742;11.420;2022-10-16T09:11:10;8.90;;;8.50;;
8584;SDS011;7180;52.742;11.420;2022-10-16T09:13:48;8.43;;;7.93;;
8584;SDS011;7180;52.742;11.420;2022-10-16T09:16:16;8.77;;;8.27;;
8584;SDS011;7180;52.742;11.420;2022-10-16T09:18:47;8.87;;;8.47;;
8584;SDS011;7180;52.742;11.420;2022-10-16T09:21:14;9.90;;;9.30;;
8584;SDS011;7180;52.742;11.420;2022-10-16T09:23:40;9.67;;;9.07;;
8584;SDS011;7180;52.742;11.420;2022-10-16T09:26:09;9.20;;;8.60;;
8584;SDS011;7180;52.742;11.420;2022-10-16T09:28:35;8.87;;;8.43;;
8584;SDS011;7180;52.742;11.420;2022-10-16T09:31:00;9.80;;;9.20;;
8584;SDS011;7180;52.742;11.420;2022-10-16T09:33:27;9.50;;;9.00;;
8584;SDS011;7180;52.742;11.420;2022-10-16T09:35:54;9.53;;;9.00;;
8584;SDS011;7180;52.742;11.420;2022-10-16T09:40:47;9.73;;;9.13;;
8584;SDS011;7180;52.742;11.420;2022-10-16T09:43:20;9.17;;;8.60;;
8584;SDS011;7180;52.742;11.420;2022-10-16T09:46:00;8.57;;;8.17;;
8584;SDS011;7180;52.742;11.420;2022-10-16T09:48:36;9.00;;;8.50;;
8584;SDS011;7180;52.742;11.420;2022-10-16T09:51:03;8.27;;;7.80;;
8584;SDS011;7180;52.742;11.420;2022-10-16T09:53:39;8.37;;;7.97;;
8584;SDS011;7180;52.742;11.420;2022-10-16T09:56:04;8.30;;;7.90;;
8584;SDS011;7180;52.742;11.420;2022-10-16T09:58:31;8.10;;;7.73;;
8584;SDS011;7180;52.742;11.420;2022-10-16T10:00:58;7.97;;;7.57;;
8584;SDS011;7180;52.742;11.420;2022-10-16T10:03:34;8.00;;;7.60;;
8584;SDS011;7180;52.742;11.420;2022-10-16T10:06:01;8.20;;;7.80;;
8584;SDS011;7180;52.742;11.420;2022-10-16T10:08:28;7.90;;;7.50;;
8584;SDS011;7180;52.742;11.420;2022-10-16T10:10:53;7.73;;;7.43;;
8584;SDS011;7180;52.742;11.420;2022-10-16T10:13:20;7.73;;;7.43;;
8584;SDS011;7180;52.742;11.420;2022-10-16T10:15:46;7.93;;;7.43;;
8584;SDS011;7180;52.742;11.420;2022-10-16T10:18:15;7.83;;;7.33;;
8584;SDS011;7180;52.742;11.420;2022-10-16T10:20:41;7.70;;;7.30;;
8584;SDS011;7180;52.742;11.420;2022-10-16T10:23:20;8.07;;;7.67;;
8584;SDS011;7180;52.742;11.420;2022-10-16T10:28:19;7.30;;;7.00;;
8584;SDS011;7180;52.742;11.420;2022-10-16T10:36:05;7.60;;;7.20;;
8584;SDS011;7180;52.742;11.420;2022-10-16T10:38:45;8.20;;;7.77;;
8584;SDS011;7180;52.742;11.420;2022-10-16T10:43:56;8.20;;;7.80;;
8584;SDS011;7180;52.742;11.420;2022-10-16T10:48:58;8.17;;;7.77;;
8584;SDS011;7180;52.742;11.420;2022-10-16T10:53:56;8.50;;;8.10;;
8584;SDS011;7180;52.742;11.420;2022-10-16T10:59:11;8.27;;;7.83;;
8584;SDS011;7180;52.742;11.420;2022-10-16T11:07:27;8.70;;;8.30;;
8584;SDS011;7180;52.742;11.420;2022-10-16T11:09:55;8.47;;;8.07;;
8584;SDS011;7180;52.742;11.420;2022-10-16T11:12:33;8.47;;;8.07;;
8584;SDS011;7180;52.742;11.420;2022-10-16T11:17:40;8.50;;;8.10;;
8584;SDS011;7180;52.742;11.420;2022-10-16T11:22:39;8.20;;;7.80;;
8584;SDS011;7180;52.742;11.420;2022-10-16T11:30:23;8.30;;;7.90;;
8584;SDS011;7180;52.742;11.420;2022-10-16T11:35:38;7.87;;;7.57;;
8584;SDS011;7180;52.742;11.420;2022-10-16T11:38:09;8.30;;;7.90;;
8584;SDS011;7180;52.742;11.420;2022-10-16T11:40:35;7.80;;;7.40;;
8584;SDS011;7180;52.742;11.420;2022-10-16T11:45:39;8.10;;;7.70;;
8584;SDS011;7180;52.742;11.420;2022-10-16T11:48:12;8.60;;;8.10;;
8584;SDS011;7180;52.742;11.420;2022-10-16T11:50:40;8.57;;;8.00;;
8584;SDS011;7180;52.742;11.420;2022-10-16T11:55:45;8.40;;;8.00;;
8584;SDS011;7180;52.742;11.420;2022-10-16T12:03:12;8.10;;;7.70;;
8584;SDS011;7180;52.742;11.420;2022-10-16T12:05:55;8.27;;;7.87;;
8584;SDS011;7180;52.742;11.420;2022-10-16T12:08:23;8.20;;;7.80;;
8584;SDS011;7180;52.742;11.420;2022-10-16T12:10:48;7.73;;;7.43;;
8584;SDS011;7180;52.742;11.420;2022-10-16T12:13:33;7.57;;;7.17;;
8584;SDS011;7180;52.742;11.420;2022-10-16T12:16:06;7.73;;;7.43;;
8584;SDS011;7180;52.742;11.420;2022-10-16T12:18:32;8.10;;;7.70;;
8584;SDS011;7180;52.742;11.420;2022-10-16T12:20:57;7.87;;;7.50;;
8584;SDS011;7180;52.742;11.420;2022-10-16T12:23:25;8.40;;;8.00;;
8584;SDS011;7180;52.742;11.420;2022-10-16T12:25:54;8.37;;;7.87;;
8584;SDS011;7180;52.742;11.420;2022-10-16T12:28:21;8.40;;;8.00;;
8584;SDS011;7180;52.742;11.420;2022-10-16T12:30:57;8.20;;;7.70;;
8584;SDS011;7180;52.742;11.420;2022-10-16T12:33:24;7.90;;;7.60;;
8584;SDS011;7180;52.742;11.420;2022-10-16T12:35:50;8.13;;;7.73;;
8584;SDS011;7180;52.742;11.420;2022-10-16T12:38:38;8.30;;;7.90;;
8584;SDS011;7180;52.742;11.420;2022-10-16T12:41:02;8.00;;;7.60;;
8584;SDS011;7180;52.742;11.420;2022-10-16T12:43:35;8.30;;;7.90;;
8584;SDS011;7180;52.742;11.420;2022-10-16T12:48:26;8.23;;;7.87;;
8584;SDS011;7180;52.742;11.420;2022-10-16T12:50:51;8.70;;;8.30;;
8584;SDS011;7180;52.742;11.420;2022-10-16T12:53:21;8.67;;;8.17;;
8584;SDS011;7180;52.742;11.420;2022-10-16T12:56:33;8.40;;;8.00;;
8584;SDS011;7180;52.742;11.420;2022-10-16T12:58:39;8.30;;;7.90;;
8584;SDS011;7180;52.742;11.420;2022-10-16T13:08:57;8.10;;;7.80;;
8584;SDS011;7180;52.742;11.420;2022-10-16T13:11:46;7.90;;;7.50;;
8584;SDS011;7180;52.742;11.420;2022-10-16T13:16:56;7.90;;;7.60;;
8584;SDS011;7180;52.742;11.420;2022-10-16T13:19:44;8.00;;;7.60;;
8584;SDS011;7180;52.742;11.420;2022-10-16T13:22:24;7.63;;;7.33;;
8584;SDS011;7180;52.742;11.420;2022-10-16T13:27:41;7.60;;;7.20;;
8584;SDS011;7180;52.742;11.420;2022-10-16T13:30:20;8.30;;;7.90;;
8584;SDS011;7180;52.742;11.420;2022-10-16T13:32:47;8.30;;;7.90;;
8584;SDS011;7180;52.742;11.420;2022-10-16T13:35:26;7.80;;;7.40;;
8584;SDS011;7180;52.742;11.420;2022-10-16T13:38:02;8.10;;;7.70;;
8584;SDS011;7180;52.742;11.420;2022-10-16T13:40:28;8.10;;;7.70;;
8584;SDS011;7180;52.742;11.420;2022-10-16T13:42:53;8.17;;;7.77;;
8584;SDS011;7180;52.742;11.420;2022-10-16T13:45:19;8.37;;;7.97;;
8584;SDS011;7180;52.742;11.420;2022-10-16T13:47:44;8.20;;;7.80;;
8584;SDS011;7180;52.742;11.420;2022-10-16T13:50:11;7.77;;;7.30;;
8584;SDS011;7180;52.742;11.420;2022-10-16T13:52:37;7.90;;;7.53;;
8584;SDS011;7180;52.742;11.420;2022-10-16T13:55:03;8.20;;;7.80;;
8584;SDS011;7180;52.742;11.420;2022-10-16T13:57:29;8.33;;;7.90;;
8584;SDS011;7180;52.742;11.420;2022-10-16T13:59:54;8.20;;;7.80;;
8584;SDS011;7180;52.742;11.420;2022-10-16T14:04:51;8.30;;;7.80;;
8584;SDS011;7180;52.742;11.420;2022-10-16T14:07:32;7.13;;;6.80;;
8584;SDS011;7180;52.742;11.420;2022-10-16T14:10:02;7.93;;;7.47;;
8584;SDS011;7180;52.742;11.420;2022-10-16T14:12:28;8.07;;;7.67;;
8584;SDS011;7180;52.742;11.420;2022-10-16T14:14:53;7.10;;;6.80;;
8584;SDS011;7180;52.742;11.420;2022-10-16T14:17:23;7.57;;;7.13;;
8584;SDS011;7180;52.742;11.420;2022-10-16T14:19:50;7.80;;;7.30;;
8584;SDS011;7180;52.742;11.420;2022-10-16T14:22:28;7.70;;;7.40;;
8584;SDS011;7180;52.742;11.420;2022-10-16T14:24:54;7.00;;;6.60;;
8584;SDS011;7180;52.742;11.420;2022-10-16T14:27:30;6.50;;;6.20;;
8584;SDS011;7180;52.742;11.420;2022-10-16T14:30:08;8.10;;;7.70;;
8584;SDS011;7180;52.742;11.420;2022-10-16T14:32:34;7.60;;;7.20;;
8584;SDS011;7180;52.742;11.420;2022-10-16T14:34:59;7.57;;;7.03;;
8584;SDS011;7180;52.742;11.420;2022-10-16T14:37:25;7.50;;;7.10;;
8584;SDS011;7180;52.742;11.420;2022-10-16T14:39:51;7.00;;;6.60;;
8584;SDS011;7180;52.742;11.420;2022-10-16T14:42:17;7.20;;;6.80;;
8584;SDS011;7180;52.742;11.420;2022-10-16T14:44:44;6.90;;;6.40;;
8584;SDS011;7180;52.742;11.420;2022-10-16T14:47:12;6.97;;;6.63;;
8584;SDS011;7180;52.742;11.420;2022-10-16T14:49:38;6.80;;;6.50;;
8584;SDS011;7180;52.742;11.420;2022-10-16T14:52:05;7.23;;;6.80;;
8584;SDS011;7180;52.742;11.420;2022-10-16T14:54:33;7.20;;;6.70;;
8584;SDS011;7180;52.742;11.420;2022-10-16T14:56:58;7.00;;;6.60;;
8584;SDS011;7180;52.742;11.420;2022-10-16T14:59:25;7.20;;;6.80;;
8584;SDS011;7180;52.742;11.420;2022-10-16T15:01:52;7.60;;;7.30;;
8584;SDS011;7180;52.742;11.420;2022-10-16T15:04:18;7.20;;;6.70;;
8584;SDS011;7180;52.742;11.420;2022-10-16T15:06:43;7.03;;;6.73;;
8584;SDS011;7180;52.742;11.420;2022-10-16T15:09:09;7.30;;;6.90;;
8584;SDS011;7180;52.742;11.420;2022-10-16T15:11:34;7.10;;;6.67;;
8584;SDS011;7180;52.742;11.420;2022-10-16T15:13:59;7.50;;;7.10;;
8584;SDS011;7180;52.742;11.420;2022-10-16T15:16:24;7.60;;;7.10;;
8584;SDS011;7180;52.742;11.420;2022-10-16T15:18:50;7.40;;;7.10;;
8584;SDS011;7180;52.742;11.420;2022-10-16T15:21:28;7.40;;;7.00;;
8584;SDS011;7180;52.742;11.420;2022-10-16T15:23:54;7.10;;;6.80;;
8584;SDS011;7180;52.742;11.420;2022-10-16T15:26:19;6.90;;;6.60;;
8584;SDS011;7180;52.742;11.420;2022-10-16T15:28:44;7.23;;;6.93;;
8584;SDS011;7180;52.742;11.420;2022-10-16T15:31:09;7.40;;;7.00;;
8584;SDS011;7180;52.742;11.420;2022-10-16T15:33:35;7.47;;;7.10;;
8584;SDS011;7180;52.742;11.420;2022-10-16T15:36:01;7.30;;;6.90;;
8584;SDS011;7180;52.742;11.420;2022-10-16T15:38:26;6.97;;;6.60;;
8584;SDS011;7180;52.742;11.420;2022-10-16T15:40:52;7.30;;;7.00;;
8584;SDS011;7180;52.742;11.420;2022-10-16T15:43:17;7.33;;;7.03;;
8584;SDS011;7180;52.742;11.420;2022-10-16T15:45:43;7.37;;;7.07;;
8584;SDS011;7180;52.742;11.420;2022-10-16T15:48:12;7.43;;;7.03;;
8584;SDS011;7180;52.742;11.420;2022-10-16T15:50:38;6.97;;;6.60;;
8584;SDS011;7180;52.742;11.420;2022-10-16T15:53:03;7.10;;;6.80;;
8584;SDS011;7180;52.742;11.420;2022-10-16T15:55:28;7.50;;;7.00;;
8584;SDS011;7180;52.742;11.420;2022-10-16T15:57:54;7.27;;;6.97;;
8584;SDS011;7180;52.742;11.420;2022-10-16T16:00:19;7.13;;;6.80;;
8584;SDS011;7180;52.742;11.420;2022-10-16T16:02:51;7.10;;;6.80;;
8584;SDS011;7180;52.742;11.420;2022-10-16T16:05:17;7.30;;;7.00;;
8584;SDS011;7180;52.742;11.420;2022-10-16T16:07:42;7.37;;;7.07;;
8584;SDS011;7180;52.742;11.420;2022-10-16T16:10:09;6.90;;;6.50;;
8584;SDS011;7180;52.742;11.420;2022-10-16T16:12:34;7.40;;;7.10;;
8584;SDS011;7180;52.742;11.420;2022-10-16T16:15:00;7.57;;;7.27;;
8584;SDS011;7180;52.742;11.420;2022-10-16T16:17:25;7.67;;;7.27;;
8584;SDS011;7180;52.742;11.420;2022-10-16T16:19:50;7.90;;;7.50;;
8584;SDS011;7180;52.742;11.420;2022-10-16T16:22:15;8.80;;;8.30;;
8584;SDS011;7180;52.742;11.420;2022-10-16T16:24:41;8.37;;;7.97;;
8584;SDS011;7180;52.742;11.420;2022-10-16T16:27:06;8.00;;;7.60;;
8584;SDS011;7180;52.742;11.420;2022-10-16T16:29:31;8.20;;;7.80;;
8584;SDS011;7180;52.742;11.420;2022-10-16T16:31:57;8.30;;;7.80;;
8584;SDS011;7180;52.742;11.420;2022-10-16T16:34:24;8.10;;;7.60;;
8584;SDS011;7180;52.742;11.420;2022-10-16T16:36:50;8.07;;;7.63;;